»·PEaware :: ASH1440 KSAN-KSBA

ASH1440 :: KSAN-KSBA

FLIGHT INFORMATION

Flight Status: Arrived
Operator:
Mesa Airlines
More flights by this operator :: More flights under this callsign
Pilot: Tanner C. (11250)
Aircraft: EMBRAER EMB-170/175
(E170)
More flights by this aircraft type
Origin: KSAN San Diego Intl-Lindbergh
United States
Destination: KSBA Santa Barbara Mun
United States
More flights between these airports :: More routes between these airports
Route: +CWARD2 CWARD AVOLS V208 VTU282 KWANG
File this flight plan on PilotEdge
Remarks:
Altitude:
(Current/Filed)
10,000ft
Speed:
(Current/Filed)
415kts
Departed: 11-May-18 09:08 PM
Arrived: 11-May-18 09:45 PM
Distance/Time
Traveled:
167nm/0:37
Distance/Time
To Go:
Arrived

Flight Plot

Page will automatically refresh every two minutes.

Flight plan parsing failed; only flown route is shown


Map Options




Map Legend


Flown Route
Filed Route
Departure Airport
Arrival Airport
Navaid (VOR, NDB)
Fix

Horizontal Profiles

Position Reports

Time Latitude Longitude Heading Altitude Ground
Speed
11-May-18 20:51 32.733193 -117.196856 134 19ft 0kts
11-May-18 20:52 32.733193 -117.196856 134 19ft 0kts
11-May-18 20:53 32.733193 -117.196856 134 19ft 0kts
11-May-18 20:54 32.733193 -117.196856 134 19ft 0kts
11-May-18 20:55 32.733193 -117.196856 134 19ft 0kts
11-May-18 20:56 32.733193 -117.196856 134 19ft 0kts
11-May-18 20:57 32.733193 -117.196856 134 19ft 0kts
11-May-18 20:58 32.733193 -117.196856 134 19ft 0kts
11-May-18 20:59 32.733193 -117.196856 134 19ft 0kts
11-May-18 21:00 32.733193 -117.196856 134 19ft 0kts
11-May-18 21:01 32.733193 -117.196856 134 19ft 0kts
11-May-18 21:02 32.733392 -117.197124 127 19ft 1kts
11-May-18 21:03 32.733835 -117.196319 63 20ft 16kts
11-May-18 21:04 32.732954 -117.191458 106 21ft 18kts
11-May-18 21:05 32.730763 -117.182500 104 19ft 37kts
11-May-18 21:06 32.729513 -117.176833 88 21ft 0kts
11-May-18 21:07 32.729513 -117.176833 88 21ft 0kts
11-May-18 21:08 32.730853 -117.178516 285 22ft 84kts
11-May-18 21:09 32.749609 -117.227309 303 2386ft 223kts
11-May-18 21:10 32.788081 -117.297405 300 5004ft 251kts
11-May-18 21:11 32.829580 -117.364780 306 7472ft 251kts
11-May-18 21:12 32.872960 -117.432177 305 9915ft 272kts
11-May-18 21:13 32.921857 -117.508198 305 10586ft 290kts
11-May-18 21:14 32.972378 -117.586902 305 13695ft 306kts
11-May-18 21:15 33.028417 -117.674555 304 13953ft 336kts
11-May-18 21:16 33.091539 -117.756970 315 13947ft 341kts
11-May-18 21:17 33.151516 -117.818704 316 13987ft 342kts
11-May-18 21:18 33.223054 -117.866725 339 13983ft 354kts
11-May-18 21:19 33.316870 -117.892434 342 13965ft 356kts
11-May-18 21:20 33.368300 -117.979558 278 13967ft 336kts
11-May-18 21:21 33.365915 -118.091782 265 13963ft 340kts
11-May-18 21:22 33.355995 -118.203861 272 13942ft 339kts
11-May-18 21:23 33.370578 -118.308751 271 13966ft 338kts
11-May-18 21:24 33.373582 -118.417990 273 13994ft 337kts
11-May-18 21:25 33.444899 -118.469678 8 13942ft 370kts
11-May-18 21:26 33.521815 -118.525229 305 13927ft 341kts
11-May-18 21:27 33.574865 -118.618420 301 13935ft 341kts
11-May-18 21:28 33.626732 -118.708024 314 13979ft 344kts
11-May-18 21:29 33.695145 -118.787807 312 13956ft 343kts
11-May-18 21:30 33.763180 -118.867564 312 13973ft 343kts
11-May-18 21:31 33.831264 -118.947536 312 13973ft 342kts
11-May-18 21:32 33.898794 -119.027033 312 13972ft 342kts
11-May-18 21:33 33.966498 -119.106939 313 13971ft 341kts
11-May-18 21:34 34.033539 -119.186240 313 13970ft 340kts
11-May-18 21:35 34.100270 -119.265368 313 13317ft 337kts
11-May-18 21:36 34.162094 -119.338838 313 12190ft 332kts
11-May-18 21:37 34.226571 -119.415599 313 10308ft 309kts
11-May-18 21:38 34.279908 -119.479239 313 7554ft 256kts
11-May-18 21:39 34.316566 -119.542581 293 5899ft 221kts
11-May-18 21:40 34.356484 -119.607581 311 4044ft 249kts
11-May-18 21:41 34.397179 -119.663851 308 3196ft 184kts
11-May-18 21:42 34.422473 -119.717245 289 2084ft 165kts
11-May-18 21:43 34.429176 -119.765803 266 1299ft 144kts
11-May-18 21:44 34.428352 -119.813820 266 418ft 140kts
11-May-18 21:45 34.427506 -119.851372 247 20ft 21kts
11-May-18 21:46 34.426629 -119.851708 137 20ft 0kts
11-May-18 21:47 34.426580 -119.843618 88 20ft 31kts
11-May-18 21:48 34.425650 -119.838023 166 20ft 16kts
11-May-18 21:49 34.424044 -119.836849 75 20ft 0kts

Navigation Log

Ident Type
Flight plan parsing failed, navigation log unavailable